createdAt,value
2018-09-09T00:00:42.421Z,5.80
2018-09-09T00:03:10.626Z,4.37
2018-09-09T00:05:39.535Z,5.00
2018-09-09T00:08:07.789Z,5.20
2018-09-09T00:10:35.967Z,3.63
2018-09-09T00:13:04.134Z,4.47
2018-09-09T00:15:32.386Z,4.50
2018-09-09T00:18:01.668Z,4.00
2018-09-09T00:20:29.897Z,6.53
2018-09-09T00:22:58.161Z,4.27
2018-09-09T00:25:26.411Z,5.03
2018-09-09T00:27:54.830Z,5.43
2018-09-09T00:30:23.319Z,5.20
2018-09-09T00:32:52.196Z,6.93
2018-09-09T00:35:20.474Z,4.20
2018-09-09T00:37:48.654Z,4.23
2018-09-09T00:40:17.299Z,4.60
2018-09-09T00:42:45.498Z,4.20
2018-09-09T00:45:13.778Z,5.57
2018-09-09T00:47:42.015Z,5.57
2018-09-09T00:50:15.682Z,4.53
2018-09-09T00:52:49.342Z,5.83
2018-09-09T00:55:17.561Z,4.47
2018-09-09T00:57:45.817Z,4.93
2018-09-09T01:00:14.025Z,6.20
2018-09-09T01:02:42.300Z,5.60
2018-09-09T01:05:10.518Z,5.40
2018-09-09T01:07:38.990Z,3.80
2018-09-09T01:10:07.198Z,5.97
2018-09-09T01:12:35.486Z,6.00
2018-09-09T01:15:03.683Z,4.10
2018-09-09T01:17:32.535Z,4.87
2018-09-09T01:20:01.439Z,5.23
2018-09-09T01:22:29.846Z,5.77
2018-09-09T01:24:58.892Z,5.00
2018-09-09T01:27:27.208Z,6.00
2018-09-09T01:29:55.662Z,5.57
2018-09-09T01:32:24.521Z,5.43
2018-09-09T01:34:52.682Z,4.90
2018-09-09T01:37:21.010Z,4.63
2018-09-09T01:39:49.322Z,6.27
2018-09-09T01:42:17.506Z,5.97
2018-09-09T01:44:45.938Z,5.40
2018-09-09T01:47:14.198Z,5.37
2018-09-09T01:49:42.537Z,6.83
2018-09-09T01:55:03.430Z,5.33
2018-09-09T01:57:31.759Z,6.80
2018-09-09T02:00:00.122Z,4.73
2018-09-09T02:02:28.406Z,5.90
2018-09-09T02:04:56.717Z,4.30
2018-09-09T02:07:25.983Z,4.03
2018-09-09T02:09:54.468Z,4.83
2018-09-09T02:12:22.769Z,4.33
2018-09-09T02:14:50.978Z,4.03
2018-09-09T02:17:19.417Z,5.63
2018-09-09T02:19:47.974Z,6.23
2018-09-09T02:22:16.573Z,4.33
2018-09-09T02:24:45.076Z,5.17
2018-09-09T02:27:13.322Z,4.83
2018-09-09T02:29:41.690Z,5.00
2018-09-09T02:32:10.122Z,4.87
2018-09-09T02:34:38.533Z,5.53
2018-09-09T02:37:06.946Z,5.77
2018-09-09T02:39:35.326Z,4.50
2018-09-09T02:42:03.731Z,5.57
2018-09-09T02:44:32.198Z,4.67
2018-09-09T02:47:01.070Z,4.77
2018-09-09T02:49:29.628Z,5.60
2018-09-09T02:51:58.238Z,5.40
2018-09-09T02:54:26.523Z,4.47
2018-09-09T02:56:55.362Z,6.57
2018-09-09T02:59:23.683Z,4.07
2018-09-09T03:01:51.945Z,4.83
2018-09-09T03:04:20.154Z,6.80
2018-09-09T03:06:48.475Z,4.53
2018-09-09T03:09:16.873Z,6.07
2018-09-09T03:11:45.183Z,5.77
2018-09-09T03:14:13.391Z,7.90
2018-09-09T03:16:41.730Z,4.97
2018-09-09T03:19:10.328Z,7.00
2018-09-09T03:21:39.822Z,4.57
2018-09-09T03:24:08.202Z,5.80
2018-09-09T03:26:36.393Z,7.13
2018-09-09T03:29:04.736Z,7.03
2018-09-09T03:31:33.170Z,5.67
2018-09-09T03:34:01.533Z,5.93
2018-09-09T03:36:29.912Z,7.53
2018-09-09T03:38:58.102Z,7.83
2018-09-09T03:41:26.313Z,4.87
2018-09-09T03:43:54.681Z,7.00
2018-09-09T03:46:23.437Z,8.70
2018-09-09T03:48:51.695Z,5.63
2018-09-09T03:51:19.934Z,4.50
2018-09-09T03:53:48.339Z,5.13
2018-09-09T03:56:16.724Z,5.13
2018-09-09T03:58:44.926Z,5.13
2018-09-09T04:01:13.166Z,6.70
2018-09-09T04:03:41.406Z,5.07
2018-09-09T04:06:09.767Z,5.33
2018-09-09T04:08:38.107Z,4.93
2018-09-09T04:11:10.459Z,4.97
2018-09-09T04:13:40.174Z,4.47
2018-09-09T04:16:09.056Z,4.50
2018-09-09T04:18:37.425Z,7.37
2018-09-09T04:21:05.610Z,7.63
2018-09-09T04:23:33.861Z,4.53
2018-09-09T04:26:02.117Z,7.57
2018-09-09T04:28:31.327Z,5.50
2018-09-09T04:30:59.754Z,6.23
2018-09-09T04:33:28.098Z,6.60
2018-09-09T04:35:56.298Z,6.17
2018-09-09T04:38:24.693Z,5.73
2018-09-09T04:40:54.250Z,5.97
2018-09-09T04:43:22.701Z,5.60
2018-09-09T04:45:51.013Z,6.30
2018-09-09T04:48:19.227Z,8.67
2018-09-09T04:50:47.659Z,5.10
2018-09-09T04:53:16.042Z,5.93
2018-09-09T04:55:44.350Z,5.77
2018-09-09T04:58:12.616Z,5.57
2018-09-09T05:00:41.114Z,6.13
2018-09-09T05:03:09.314Z,6.70
2018-09-09T05:05:37.540Z,4.70
2018-09-09T05:08:05.825Z,6.20
2018-09-09T05:10:34.051Z,5.27
2018-09-09T05:13:02.944Z,5.47
2018-09-09T05:15:31.166Z,5.50
2018-09-09T05:17:59.366Z,7.23
2018-09-09T05:20:27.653Z,6.43
2018-09-09T05:22:55.885Z,7.57
2018-09-09T05:25:24.142Z,5.03
2018-09-09T05:27:52.371Z,5.10
2018-09-09T05:30:20.542Z,6.23
2018-09-09T05:32:48.810Z,10.07
2018-09-09T05:35:17.165Z,6.00
2018-09-09T05:37:45.829Z,7.23
2018-09-09T05:40:14.068Z,5.50
2018-09-09T05:42:42.345Z,8.30
2018-09-09T05:45:10.614Z,6.10
2018-09-09T05:47:39.078Z,7.70
2018-09-09T05:50:07.259Z,6.73
2018-09-09T05:52:35.458Z,8.40
2018-09-09T05:55:03.940Z,6.37
2018-09-09T05:57:32.263Z,6.60
2018-09-09T06:00:01.139Z,7.50
2018-09-09T06:02:31.425Z,7.67
2018-09-09T06:04:59.595Z,7.97
2018-09-09T06:07:27.776Z,8.03
2018-09-09T06:09:55.957Z,8.50
2018-09-09T06:12:24.822Z,8.57
2018-09-09T06:14:53.053Z,10.37
2018-09-09T06:17:21.263Z,7.50
2018-09-09T06:19:49.478Z,6.53
2018-09-09T06:22:17.709Z,9.03
2018-09-09T06:24:46.115Z,6.70
2018-09-09T06:27:14.386Z,6.93
2018-09-09T06:29:42.640Z,9.87
2018-09-09T06:32:10.830Z,7.40
2018-09-09T06:34:39.127Z,7.17
2018-09-09T06:37:07.388Z,6.97
2018-09-09T06:39:35.663Z,7.73
2018-09-09T06:42:03.875Z,9.47
2018-09-09T06:44:32.166Z,7.47
2018-09-09T06:47:00.882Z,8.07
2018-09-09T06:49:29.175Z,7.60
2018-09-09T06:51:57.728Z,7.67
2018-09-09T06:54:25.854Z,7.37
2018-09-09T06:56:54.289Z,10.13
2018-09-09T06:59:22.528Z,9.33
2018-09-09T07:01:50.702Z,8.47
2018-09-09T07:04:18.969Z,8.27
2018-09-09T07:06:47.193Z,7.20
2018-09-09T07:09:15.424Z,7.63
2018-09-09T07:11:43.870Z,7.37
2018-09-09T07:14:11.856Z,7.23
2018-09-09T07:16:40.379Z,12.40
2018-09-09T07:19:08.688Z,6.20
2018-09-09T07:21:36.926Z,8.37
2018-09-09T07:24:05.618Z,6.23
2018-09-09T07:26:34.019Z,10.40
2018-09-09T07:29:02.455Z,7.40
2018-09-09T07:31:31.489Z,6.67
2018-09-09T07:33:59.689Z,6.13
2018-09-09T07:36:27.901Z,6.10
2018-09-09T07:38:56.200Z,5.73
2018-09-09T07:41:24.604Z,6.30
2018-09-09T07:43:53.502Z,8.57
2018-09-09T07:46:21.765Z,7.23
2018-09-09T07:48:50.007Z,11.00
2018-09-09T07:51:18.186Z,9.10
2018-09-09T07:53:47.215Z,7.57
2018-09-09T07:56:16.441Z,9.13
2018-09-09T07:58:44.638Z,5.80
2018-09-09T08:01:12.818Z,8.93
2018-09-09T08:03:41.012Z,6.87
2018-09-09T08:06:09.364Z,7.97
2018-09-09T08:08:37.699Z,5.87
2018-09-09T08:11:06.046Z,6.50
2018-09-09T08:13:34.243Z,6.33
2018-09-09T08:16:02.506Z,12.50
2018-09-09T08:18:30.854Z,8.63
2018-09-09T08:20:59.069Z,7.92
2018-09-09T08:23:27.503Z,8.63
2018-09-09T08:25:55.680Z,7.35
2018-09-09T08:28:23.912Z,7.33
2018-09-09T08:30:52.142Z,7.40
2018-09-09T08:33:20.345Z,7.97
2018-09-09T08:35:48.692Z,7.65
2018-09-09T08:38:17.055Z,9.35
2018-09-09T08:40:45.425Z,9.03
2018-09-09T08:43:13.651Z,11.22
2018-09-09T08:45:41.902Z,14.30
2018-09-09T08:48:10.202Z,9.88
2018-09-09T08:50:38.450Z,8.90
2018-09-09T08:53:06.662Z,9.78
2018-09-09T08:55:34.911Z,14.33
2018-09-09T08:58:03.203Z,6.95
2018-09-09T09:00:32.403Z,8.85
2018-09-09T09:03:00.820Z,12.63
2018-09-09T09:05:29.044Z,8.10
2018-09-09T09:07:57.310Z,9.85
2018-09-09T09:10:25.513Z,8.25
2018-09-09T09:12:54.465Z,7.30
2018-09-09T09:15:23.413Z,11.53
2018-09-09T09:17:51.630Z,7.28
2018-09-09T09:20:19.883Z,6.65
2018-09-09T09:22:48.133Z,8.00
2018-09-09T09:25:16.562Z,6.90
2018-09-09T09:27:44.826Z,6.37
2018-09-09T09:30:13.258Z,5.62
2018-09-09T09:32:48.196Z,3.75
2018-09-09T09:35:16.527Z,3.25
2018-09-09T09:37:44.775Z,5.15
2018-09-09T09:40:13.009Z,3.75
2018-09-09T09:42:41.194Z,4.47
2018-09-09T09:45:12.345Z,3.62
2018-09-09T09:47:40.722Z,3.35
2018-09-09T09:50:09.970Z,4.00
2018-09-09T09:52:38.378Z,3.05
2018-09-09T09:55:06.666Z,6.45
2018-09-09T09:57:34.834Z,5.33
2018-09-09T10:00:03.111Z,2.98
2018-09-09T10:02:31.358Z,2.37
2018-09-09T10:04:59.614Z,1.70
2018-09-09T10:07:27.943Z,1.85
2018-09-09T10:09:56.149Z,3.58
2018-09-09T10:12:24.483Z,4.22
2018-09-09T10:14:53.391Z,1.90
2018-09-09T10:17:21.626Z,4.90
2018-09-09T10:19:49.841Z,2.02
2018-09-09T10:22:18.090Z,3.02
2018-09-09T10:24:46.367Z,3.98
2018-09-09T10:27:14.646Z,2.30
2018-09-09T10:29:43.041Z,4.12
2018-09-09T10:32:11.278Z,5.45
2018-09-09T10:34:39.511Z,2.80
2018-09-09T10:37:07.771Z,3.47
2018-09-09T10:39:35.975Z,3.47
2018-09-09T10:42:04.213Z,4.47
2018-09-09T10:44:33.477Z,3.65
2018-09-09T10:47:02.797Z,2.50
2018-09-09T10:49:30.990Z,2.62
2018-09-09T10:51:59.254Z,3.33
2018-09-09T10:54:27.762Z,1.90
2018-09-09T10:56:55.969Z,2.50
2018-09-09T10:59:24.309Z,3.02
2018-09-09T11:01:53.367Z,2.60
2018-09-09T11:04:21.593Z,2.02
2018-09-09T11:06:49.895Z,1.85
2018-09-09T11:09:18.331Z,2.42
2018-09-09T11:11:46.859Z,2.87
2018-09-09T11:14:15.141Z,1.92
2018-09-09T11:16:43.423Z,2.08
2018-09-09T11:19:12.065Z,3.17
2018-09-09T11:21:40.677Z,1.60
2018-09-09T11:24:08.963Z,2.00
2018-09-09T11:26:37.285Z,2.08
2018-09-09T11:29:05.571Z,2.90
2018-09-09T11:31:33.765Z,1.50
2018-09-09T11:34:02.308Z,1.90
2018-09-09T11:36:30.881Z,2.42
2018-09-09T11:38:59.062Z,3.65
2018-09-09T11:41:27.297Z,1.82
2018-09-09T11:43:55.953Z,2.08
2018-09-09T11:46:24.442Z,3.37
2018-09-09T11:48:52.763Z,2.37
2018-09-09T11:51:20.944Z,1.80
2018-09-09T11:53:49.194Z,1.95
2018-09-09T11:56:17.535Z,1.65
2018-09-09T11:58:46.010Z,1.92
2018-09-09T12:01:14.379Z,1.60
2018-09-09T12:03:42.878Z,2.27
2018-09-09T12:06:11.117Z,2.47
2018-09-09T12:08:39.343Z,1.47
2018-09-09T12:11:07.709Z,3.22
2018-09-09T12:13:35.961Z,1.80
2018-09-09T12:16:04.202Z,3.15
2018-09-09T12:18:32.560Z,3.85
2018-09-09T12:21:01.022Z,1.77
2018-09-09T12:23:29.275Z,1.92
2018-09-09T12:25:57.505Z,2.15
2018-09-09T12:28:25.773Z,2.35
2018-09-09T12:30:54.264Z,2.10
2018-09-09T12:33:22.708Z,2.05
2018-09-09T12:35:51.018Z,1.67
2018-09-09T12:38:19.332Z,2.30
2018-09-09T12:40:47.662Z,1.85
2018-09-09T12:43:21.440Z,4.35
2018-09-09T12:45:55.189Z,1.50
2018-09-09T12:48:28.933Z,2.65
2018-09-09T12:50:57.150Z,1.60
2018-09-09T12:53:25.414Z,1.30
2018-09-09T12:55:53.732Z,2.33
2018-09-09T12:58:22.014Z,2.08
2018-09-09T13:00:50.362Z,1.87
2018-09-09T13:03:18.811Z,3.20
2018-09-09T13:05:47.177Z,1.32
2018-09-09T13:08:15.452Z,4.50
2018-09-09T13:10:43.669Z,2.30
2018-09-09T13:13:19.339Z,2.37
2018-09-09T13:15:48.374Z,2.62
2018-09-09T13:18:17.916Z,1.62
2018-09-09T13:20:46.403Z,1.45
2018-09-09T13:23:14.631Z,1.30
2018-09-09T13:25:42.954Z,1.70
2018-09-09T13:28:11.144Z,4.22
2018-09-09T13:30:39.551Z,2.20
2018-09-09T13:33:07.847Z,2.90
2018-09-09T13:35:36.059Z,2.15
2018-09-09T13:38:04.262Z,1.25
2018-09-09T13:40:32.659Z,2.20
2018-09-09T13:43:01.970Z,1.27
2018-09-09T13:45:30.488Z,6.72
2018-09-09T13:47:58.817Z,5.33
2018-09-09T13:50:27.026Z,2.65
2018-09-09T13:52:55.325Z,2.00
2018-09-09T13:55:23.558Z,3.42
2018-09-09T13:57:51.916Z,1.87
2018-09-09T14:00:20.134Z,3.60
2018-09-09T14:02:48.524Z,1.75
2018-09-09T14:05:16.859Z,1.55
2018-09-09T14:07:45.174Z,1.45
2018-09-09T14:10:13.473Z,4.53
2018-09-09T14:12:41.702Z,1.87
2018-09-09T14:15:10.186Z,1.67
2018-09-09T14:17:38.801Z,1.12
2018-09-09T14:20:07.409Z,1.20
2018-09-09T14:22:35.678Z,1.52
2018-09-09T14:25:03.979Z,2.22
2018-09-09T14:27:32.410Z,1.87
2018-09-09T14:30:00.718Z,2.80
2018-09-09T14:32:28.917Z,1.52
2018-09-09T14:34:57.134Z,2.17
2018-09-09T14:37:25.450Z,1.87
2018-09-09T14:39:53.679Z,2.75
2018-09-09T14:42:22.110Z,1.98
2018-09-09T14:44:50.308Z,2.12
2018-09-09T14:47:18.520Z,2.72
2018-09-09T14:49:47.842Z,1.20
2018-09-09T14:52:16.098Z,2.12
2018-09-09T14:54:44.315Z,1.05
2018-09-09T14:57:12.630Z,1.77
2018-09-09T14:59:40.912Z,1.70
2018-09-09T15:02:09.301Z,1.20
2018-09-09T15:04:37.690Z,1.27
2018-09-09T15:07:06.390Z,2.62
2018-09-09T15:09:34.613Z,1.95
2018-09-09T15:12:03.962Z,1.42
2018-09-09T15:14:32.322Z,1.47
2018-09-09T15:17:00.585Z,4.00
2018-09-09T15:19:28.818Z,1.80
2018-09-09T15:21:57.152Z,2.20
2018-09-09T15:24:25.798Z,2.27
2018-09-09T15:26:55.243Z,1.50
2018-09-09T15:29:23.554Z,1.65
2018-09-09T15:31:51.876Z,1.90
2018-09-09T15:34:20.093Z,1.32
2018-09-09T15:36:48.282Z,1.32
2018-09-09T15:39:16.600Z,1.77
2018-09-09T15:41:44.828Z,1.87
2018-09-09T15:44:13.052Z,1.40
2018-09-09T15:46:41.307Z,1.77
2018-09-09T15:49:09.606Z,1.37
2018-09-09T15:51:37.931Z,2.45
2018-09-09T15:54:06.131Z,3.37
2018-09-09T15:56:34.391Z,1.07
2018-09-09T15:59:03.013Z,1.60
2018-09-09T16:01:31.225Z,1.20
2018-09-09T16:03:59.754Z,5.10
2018-09-09T16:06:28.015Z,3.00
2018-09-09T16:09:02.999Z,1.40
2018-09-09T16:11:31.873Z,1.92
2018-09-09T16:14:00.070Z,2.90
2018-09-09T16:16:28.303Z,1.70
2018-09-09T16:18:56.530Z,1.52
2018-09-09T16:21:24.802Z,2.75
2018-09-09T16:23:53.039Z,2.27
2018-09-09T16:26:21.463Z,2.27
2018-09-09T16:28:49.690Z,1.27
2018-09-09T16:31:18.968Z,2.37
2018-09-09T16:33:47.385Z,1.20
2018-09-09T16:36:15.855Z,1.45
2018-09-09T16:38:44.119Z,2.87
2018-09-09T16:41:12.408Z,2.80
2018-09-09T16:43:40.719Z,1.60
2018-09-09T16:46:09.661Z,2.37
2018-09-09T16:48:37.971Z,2.30
2018-09-09T16:51:06.201Z,2.15
2018-09-09T16:53:34.448Z,2.08
2018-09-09T16:56:02.734Z,2.52
2018-09-09T16:58:31.099Z,1.65
2018-09-09T17:00:59.596Z,2.60
2018-09-09T17:03:27.831Z,1.20
2018-09-09T17:05:56.081Z,1.67
2018-09-09T17:08:24.586Z,1.35
2018-09-09T17:10:52.963Z,1.37
2018-09-09T17:13:21.286Z,1.80
2018-09-09T17:15:49.494Z,1.30
2018-09-09T17:18:17.792Z,3.00
2018-09-09T17:20:46.209Z,5.10
2018-09-09T17:23:14.542Z,1.80
2018-09-09T17:25:42.862Z,2.47
2018-09-09T17:28:11.062Z,1.47
2018-09-09T17:30:39.539Z,2.80
2018-09-09T17:33:08.108Z,2.73
2018-09-09T17:35:36.418Z,2.40
2018-09-09T17:38:04.662Z,2.10
2018-09-09T17:40:32.932Z,1.60
2018-09-09T17:43:01.726Z,2.50
2018-09-09T17:45:30.586Z,1.53
2018-09-09T17:47:58.892Z,4.07
2018-09-09T17:50:27.158Z,8.87
2018-09-09T17:52:57.602Z,2.10
2018-09-09T17:55:25.771Z,4.03
2018-09-09T17:57:54.126Z,3.17
2018-09-09T18:00:22.322Z,3.57
2018-09-09T18:02:50.943Z,2.70
2018-09-09T18:05:19.194Z,2.90
2018-09-09T18:07:47.437Z,1.97
2018-09-09T18:10:15.648Z,1.40
2018-09-09T18:12:44.017Z,4.33
2018-09-09T18:15:12.248Z,2.40
2018-09-09T18:17:40.618Z,5.27
2018-09-09T18:20:08.904Z,2.87
2018-09-09T18:22:37.062Z,1.80
2018-09-09T18:25:05.278Z,2.83
2018-09-09T18:27:33.535Z,3.33
2018-09-09T18:30:01.802Z,2.00
2018-09-09T18:32:30.002Z,1.53
2018-09-09T18:34:58.255Z,3.93
2018-09-09T18:37:26.397Z,1.73
2018-09-09T18:39:54.865Z,2.13
2018-09-09T18:42:23.199Z,2.20
2018-09-09T18:44:51.573Z,3.03
2018-09-09T18:47:19.713Z,2.00
2018-09-09T18:49:47.947Z,2.53
2018-09-09T18:52:16.939Z,1.33
2018-09-09T18:54:45.228Z,1.60
2018-09-09T18:57:13.435Z,4.20
2018-09-09T18:59:41.627Z,2.67
2018-09-09T19:02:09.954Z,5.23
2018-09-09T19:04:38.151Z,4.80
2018-09-09T19:07:06.370Z,3.37
2018-09-09T19:09:34.554Z,5.47
2018-09-09T19:12:02.870Z,4.43
2018-09-09T19:14:31.082Z,1.83
2018-09-09T19:16:59.306Z,1.33
2018-09-09T19:19:27.529Z,3.30
2018-09-09T19:21:55.886Z,3.00
2018-09-09T19:24:24.627Z,1.63
2018-09-09T19:26:53.102Z,2.70
2018-09-09T19:29:21.346Z,2.43
2018-09-09T19:31:49.631Z,2.03
2018-09-09T19:34:17.953Z,2.13
2018-09-09T19:36:46.291Z,1.50
2018-09-09T19:39:14.606Z,2.00
2018-09-09T19:41:42.863Z,2.67
2018-09-09T19:44:11.143Z,1.57
2018-09-09T19:46:39.387Z,2.13
2018-09-09T19:49:07.807Z,1.87
2018-09-09T19:51:36.339Z,2.63
2018-09-09T19:54:04.718Z,3.83
2018-09-09T19:56:32.971Z,1.50
2018-09-09T19:59:01.375Z,2.30
2018-09-09T20:01:29.599Z,2.17
2018-09-09T20:03:57.936Z,2.97
2018-09-09T20:06:26.241Z,1.87
2018-09-09T20:08:55.175Z,2.60
2018-09-09T20:11:23.984Z,1.60
2018-09-09T20:13:52.278Z,1.60
2018-09-09T20:16:21.992Z,2.37
2018-09-09T20:18:50.457Z,2.17
2018-09-09T20:21:18.733Z,2.27
2018-09-09T20:23:47.757Z,1.60
2018-09-09T20:26:16.058Z,1.77
2018-09-09T20:28:44.312Z,2.10
2018-09-09T20:31:12.740Z,3.43
2018-09-09T20:33:41.317Z,2.27
2018-09-09T20:36:09.762Z,1.60
2018-09-09T20:38:38.308Z,2.47
2018-09-09T20:41:06.583Z,2.07
2018-09-09T20:43:34.864Z,1.70
2018-09-09T20:46:03.276Z,1.53
2018-09-09T20:48:31.516Z,3.57
2018-09-09T20:50:59.779Z,1.83
2018-09-09T20:53:28.112Z,2.70
2018-09-09T20:55:56.370Z,4.57
2018-09-09T20:58:24.823Z,2.43
2018-09-09T21:00:53.178Z,2.90
2018-09-09T21:03:21.418Z,2.40
2018-09-09T21:05:49.660Z,4.57
2018-09-09T21:08:17.969Z,3.83
2018-09-09T21:10:46.421Z,2.27
2018-09-09T21:13:14.762Z,2.10
2018-09-09T21:15:43.081Z,1.53
2018-09-09T21:18:11.331Z,2.03
2018-09-09T21:20:39.864Z,3.27
2018-09-09T21:23:08.072Z,2.10
2018-09-09T21:25:36.362Z,1.53
2018-09-09T21:28:04.633Z,2.13
2018-09-09T21:30:32.983Z,1.77
2018-09-09T21:33:01.566Z,2.50
2018-09-09T21:35:29.795Z,2.37
2018-09-09T21:37:58.040Z,6.27
2018-09-09T21:40:26.286Z,2.50
2018-09-09T21:42:54.793Z,3.77
2018-09-09T21:45:23.244Z,3.13
2018-09-09T21:47:51.570Z,4.10
2018-09-09T21:50:19.890Z,1.60
2018-09-09T21:52:48.204Z,1.87
2018-09-09T21:55:16.440Z,1.97
2018-09-09T21:57:44.703Z,2.73
2018-09-09T22:00:13.572Z,2.03
2018-09-09T22:02:42.653Z,1.40
2018-09-09T22:05:11.601Z,3.47
2018-09-09T22:07:40.074Z,2.03
2018-09-09T22:10:08.437Z,3.00
2018-09-09T22:12:36.645Z,1.70
2018-09-09T22:15:04.907Z,1.70
2018-09-09T22:17:33.332Z,2.80
2018-09-09T22:20:01.631Z,1.90
2018-09-09T22:22:29.959Z,2.03
2018-09-09T22:24:58.189Z,4.13
2018-09-09T22:27:26.521Z,1.97
2018-09-09T22:29:55.009Z,2.77
2018-09-09T22:32:23.311Z,2.70
2018-09-09T22:34:51.554Z,3.50
2018-09-09T22:37:19.800Z,5.70
2018-09-09T22:39:48.585Z,2.67
2018-09-09T22:42:16.932Z,2.33
2018-09-09T22:44:45.185Z,1.87
2018-09-09T22:47:13.403Z,5.50
2018-09-09T22:49:41.899Z,4.10
2018-09-09T22:52:10.131Z,5.40
2018-09-09T22:54:38.382Z,2.50
2018-09-09T22:57:06.644Z,5.03
2018-09-09T22:59:34.897Z,2.70
2018-09-09T23:02:03.344Z,3.40
2018-09-09T23:04:31.635Z,2.50
2018-09-09T23:06:59.903Z,5.20
2018-09-09T23:09:28.156Z,4.53
2018-09-09T23:11:56.383Z,2.20
2018-09-09T23:14:24.786Z,2.27
2018-09-09T23:16:53.009Z,3.83
2018-09-09T23:19:21.292Z,2.50
2018-09-09T23:21:49.568Z,2.40
2018-09-09T23:24:18.419Z,2.30
2018-09-09T23:26:46.884Z,2.87
2018-09-09T23:29:15.166Z,3.80
2018-09-09T23:31:43.478Z,2.60
2018-09-09T23:34:11.805Z,3.90
2018-09-09T23:36:40.707Z,3.80
2018-09-09T23:39:10.423Z,3.47
2018-09-09T23:41:38.735Z,2.87
2018-09-09T23:44:07.402Z,6.13
2018-09-09T23:46:35.703Z,4.57
2018-09-09T23:49:04.204Z,3.90
2018-09-09T23:51:32.567Z,3.50
2018-09-09T23:54:00.819Z,3.40
2018-09-09T23:56:29.173Z,2.57
2018-09-09T23:58:57.407Z,3.47
